Time;durP1;ratioP1;P1;durP2;ratioP2;P2;SDS_P1;SDS_P2;PMS_P1;PMS_P2;Temp;Humidity;BMP_temperature;BMP_pressure;BME280_temperature;BME280_humidity;BME280_pressure;Samples;Min_cycle;Max_cycle;Signal;HPM_P1;HPM_P2
2022/01/07 00:00:20;;;;;;;8.07;3.55;;;;;;;1.65;100.00;95011.94;5079176;28;20047;-58
2022/01/07 00:02:50;;;;;;;6.60;3.95;;;;;;;1.56;100.00;95002.69;5074430;28;20068;-58
2022/01/07 00:05:18;;;;;;;6.20;3.78;;;;;;;1.62;100.00;95011.47;5064914;28;20036;-58
2022/01/07 00:07:45;;;;;;;6.10;3.10;;;;;;;1.55;100.00;95006.25;5066775;28;20138;-58
2022/01/07 00:10:15;;;;;;;7.18;3.80;;;;;;;1.49;100.00;95012.03;5066836;28;20458;-57
2022/01/07 00:12:43;;;;;;;9.70;4.53;;;;;;;1.47;100.00;95009.66;5064370;28;20052;-57
2022/01/07 00:15:10;;;;;;;4.55;2.67;;;;;;;1.45;100.00;95011.59;5075875;28;20118;-57
2022/01/07 00:17:37;;;;;;;4.90;3.45;;;;;;;1.43;100.00;95013.53;5080153;28;20044;-57
2022/01/07 00:20:08;;;;;;;6.43;3.00;;;;;;;1.46;100.00;95012.38;5072817;28;20040;-57
2022/01/07 00:22:40;;;;;;;4.07;2.58;;;;;;;1.43;100.00;95023.78;5077015;28;20143;-58
2022/01/07 00:25:08;;;;;;;4.65;3.45;;;;;;;1.34;100.00;95015.34;5065314;28;20043;-55
2022/01/07 00:27:35;;;;;;;9.25;4.65;;;;;;;1.31;100.00;95004.59;5070398;28;20044;-58
2022/01/07 00:30:06;;;;;;;3.03;2.72;;;;;;;1.29;100.00;95020.16;5072989;28;20052;-57
2022/01/07 00:32:33;;;;;;;4.40;2.10;;;;;;;1.26;100.00;95010.25;5078539;28;20040;-56
2022/01/07 00:35:00;;;;;;;4.30;2.55;;;;;;;1.29;100.00;95016.81;5083028;28;20579;-58
2022/01/07 00:37:27;;;;;;;5.43;3.35;;;;;;;1.27;100.00;95014.41;5071850;28;20052;-58
2022/01/07 00:39:54;;;;;;;7.82;3.35;;;;;;;1.26;100.00;95023.09;5073767;28;20113;-57
2022/01/07 00:42:21;;;;;;;7.25;4.85;;;;;;;1.29;100.00;95017.59;5070675;28;20050;-58
2022/01/07 00:44:48;;;;;;;10.25;3.53;;;;;;;1.28;100.00;95021.16;5078173;28;20044;-58
2022/01/07 00:47:16;;;;;;;6.22;3.15;;;;;;;1.27;100.00;95019.53;5069560;28;20044;-58
2022/01/07 00:49:44;;;;;;;7.28;3.53;;;;;;;1.24;100.00;95022.47;5081660;28;20127;-56
2022/01/07 00:52:10;;;;;;;5.35;3.15;;;;;;;1.15;100.00;95002.91;5074967;28;20045;-57
2022/01/07 00:54:37;;;;;;;6.90;4.05;;;;;;;1.29;100.00;95022.72;5081625;28;20036;-57
2022/01/07 00:57:05;;;;;;;2.47;2.08;;;;;;;1.29;100.00;95022.72;5075796;28;20028;-57
2022/01/07 00:59:31;;;;;;;6.55;3.30;;;;;;;1.32;100.00;95024.97;5069496;28;20430;-57
2022/01/07 01:01:58;;;;;;;4.75;2.88;;;;;;;1.38;100.00;95031.19;5081145;28;20044;-57
2022/01/07 01:04:42;;;;;;;3.58;1.95;;;;;;;1.32;100.00;95035.25;5074018;28;20048;-56
2022/01/07 01:07:08;;;;;;;5.85;1.92;;;;;;;1.32;100.00;95037.81;5075945;28;20045;-57
2022/01/07 01:09:35;;;;;;;5.93;2.88;;;;;;;1.32;100.00;95040.38;5074797;28;20048;-58
2022/01/07 01:12:03;;;;;;;5.78;3.95;;;;;;;1.26;100.00;95038.50;5065493;28;20532;-55
2022/01/07 01:14:30;;;;;;;2.67;1.83;;;;;;;1.25;100.00;95031.75;5065112;28;20048;-58
2022/01/07 01:16:59;;;;;;;7.38;3.85;;;;;;;1.23;100.00;95036.25;5075868;28;20462;-57
2022/01/07 01:19:27;;;;;;;4.13;2.67;;;;;;;1.21;100.00;95040.75;5067628;28;20075;-57
2022/01/07 01:21:54;;;;;;;3.05;2.28;;;;;;;1.21;100.00;95035.63;5068673;28;20059;-57
2022/01/07 01:24:22;;;;;;;5.13;2.63;;;;;;;1.21;100.00;95051.03;5064315;28;20044;-57
2022/01/07 01:26:49;;;;;;;3.38;2.10;;;;;;;1.16;100.00;95045.59;5073906;28;20051;-57
2022/01/07 01:29:16;;;;;;;3.70;2.50;;;;;;;1.19;100.00;95037.56;5079839;28;20552;-57
2022/01/07 01:31:44;;;;;;;3.67;2.53;;;;;;;1.18;100.00;95030.81;5077641;28;20036;-57
2022/01/07 01:34:11;;;;;;;6.10;3.03;;;;;;;1.21;100.00;95048.44;5075925;28;20554;-58
2022/01/07 01:36:38;;;;;;;4.57;2.60;;;;;;;1.18;100.00;95047.97;5077805;28;20041;-57
2022/01/07 01:39:05;;;;;;;5.57;3.08;;;;;;;1.22;100.00;95046.69;5076765;28;20047;-57
2022/01/07 01:41:32;;;;;;;5.88;3.15;;;;;;;1.24;100.00;95049.88;5077853;28;20040;-57
2022/01/07 01:43:59;;;;;;;4.88;2.83;;;;;;;1.15;100.00;95041.41;5077967;28;20057;-57
2022/01/07 01:46:26;;;;;;;3.97;2.38;;;;;;;1.23;100.00;95043.94;5074488;28;20032;-57
2022/01/07 01:48:53;;;;;;;6.13;2.95;;;;;;;1.22;100.00;95046.69;5080740;28;20047;-57
2022/01/07 01:51:20;;;;;;;4.05;2.13;;;;;;;1.20;100.00;95034.00;5087932;28;20047;-58
2022/01/07 01:53:47;;;;;;;5.78;3.95;;;;;;;1.23;100.00;95038.81;5069600;28;20045;-57
2022/01/07 01:56:14;;;;;;;4.78;2.97;;;;;;;1.19;100.00;95037.56;5082216;28;20772;-57
2022/01/07 01:58:41;;;;;;;6.75;3.80;;;;;;;1.22;100.00;95042.34;5071611;28;20044;-57
2022/01/07 02:01:08;;;;;;;5.32;3.42;;;;;;;1.22;100.00;95036.41;5070431;28;20059;-57
2022/01/07 02:03:35;;;;;;;5.60;2.67;;;;;;;1.19;100.00;95042.69;5079135;28;20036;-57
2022/01/07 02:06:02;;;;;;;5.63;3.85;;;;;;;1.17;100.00;95044.63;5083613;28;20036;-57
2022/01/07 02:08:30;;;;;;;4.20;2.90;;;;;;;1.21;100.00;95051.03;5082201;28;20054;-57
2022/01/07 02:10:59;;;;;;;3.47;2.35;;;;;;;1.21;100.00;95045.88;5074246;28;20040;-58
2022/01/07 02:13:26;;;;;;;5.30;2.72;;;;;;;1.16;100.00;95052.50;5069761;28;20422;-57
2022/01/07 02:15:53;;;;;;;6.07;3.53;;;;;;;1.17;100.00;95054.88;5074414;28;20033;-58
2022/01/07 02:18:20;;;;;;;4.35;2.33;;;;;;;1.10;100.00;95048.81;5074392;28;20043;-57
2022/01/07 02:20:48;;;;;;;4.82;2.58;;;;;;;1.11;100.00;95055.53;5070212;28;20371;-56
2022/01/07 02:23:17;;;;;;;3.55;2.00;;;;;;;1.05;100.00;95051.09;5084043;28;20102;-56
2022/01/07 02:25:45;;;;;;;4.95;2.95;;;;;;;1.09;100.00;95062.59;5078285;28;20502;-57
2022/01/07 02:28:13;;;;;;;3.67;1.88;;;;;;;1.11;100.00;95060.66;5075502;28;20616;-56
2022/01/07 02:30:41;;;;;;;4.63;2.78;;;;;;;1.07;100.00;95064.53;5076330;28;20045;-56
2022/01/07 02:33:08;;;;;;;6.35;3.35;;;;;;;1.08;100.00;95068.69;5072941;28;20036;-56
2022/01/07 02:35:35;;;;;;;5.57;2.88;;;;;;;1.09;100.00;95073.66;5074357;28;20421;-56
2022/01/07 02:38:03;;;;;;;5.32;2.80;;;;;;;0.98;100.00;95065.53;5071115;28;20040;-56
2022/01/07 02:40:30;;;;;;;4.05;2.08;;;;;;;0.99;100.00;95062.81;5068224;28;20048;-56
2022/01/07 02:42:57;;;;;;;4.93;2.97;;;;;;;1.01;100.00;95071.13;5075888;28;20037;-57
2022/01/07 02:45:24;;;;;;;7.35;3.70;;;;;;;1.03;100.00;95073.53;5078870;28;20044;-56
2022/01/07 02:47:55;;;;;;;5.70;3.10;;;;;;;0.99;100.00;95069.69;5072365;28;20056;-56
2022/01/07 02:50:31;;;;;;;4.15;2.53;;;;;;;1.00;100.00;95072.09;5081022;28;20043;-56
2022/01/07 02:52:58;;;;;;;4.32;2.90;;;;;;;0.92;100.00;95085.75;5082536;28;20520;-55
2022/01/07 02:55:25;;;;;;;7.75;2.67;;;;;;;0.93;100.00;95074.50;5085039;28;20462;-56
2022/01/07 02:57:54;;;;;;;4.05;2.53;;;;;;;0.93;100.00;95089.09;5082449;28;20051;-56
2022/01/07 03:00:22;;;;;;;3.97;2.53;;;;;;;0.94;100.00;95086.38;5075443;28;20049;-56
2022/01/07 03:02:51;;;;;;;5.60;2.55;;;;;;;0.95;100.00;95082.84;5078830;28;20057;-56
2022/01/07 03:05:19;;;;;;;6.57;2.70;;;;;;;0.97;100.00;95094.69;5070978;28;20055;-56
2022/01/07 03:07:47;;;;;;;6.07;3.20;;;;;;;0.94;100.00;95088.94;5072201;28;20494;-57
2022/01/07 03:10:17;;;;;;;6.50;2.97;;;;;;;0.88;100.00;95087.06;5068527;28;20168;-56
2022/01/07 03:12:44;;;;;;;6.65;3.13;;;;;;;0.93;100.00;95084.75;5072331;28;20522;-56
2022/01/07 03:15:14;;;;;;;5.70;3.63;;;;;;;0.95;100.00;95076.91;5070834;28;20053;-56
2022/01/07 03:17:41;;;;;;;3.28;2.47;;;;;;;0.90;100.00;95092.81;5074207;28;20533;-57
2022/01/07 03:20:11;;;;;;;6.53;3.92;;;;;;;0.89;100.00;95096.31;5077641;28;20401;-55
2022/01/07 03:22:38;;;;;;;4.53;2.92;;;;;;;0.89;100.00;95083.50;5073654;28;20049;-55
2022/01/07 03:25:06;;;;;;;4.32;2.35;;;;;;;0.81;100.00;95086.09;5076438;28;20071;-56
2022/01/07 03:27:33;;;;;;;6.90;3.90;;;;;;;0.89;100.00;95098.09;5085030;28;20042;-56
2022/01/07 03:30:01;;;;;;;9.10;4.40;;;;;;;0.78;100.00;95078.72;5077983;28;20043;-56
2022/01/07 03:32:28;;;;;;;4.05;2.10;;;;;;;0.87;100.00;95095.69;5082857;28;20540;-56
2022/01/07 03:34:55;;;;;;;9.93;3.70;;;;;;;0.91;100.00;95102.09;5082973;28;20043;-57
2022/01/07 03:37:22;;;;;;;6.15;2.83;;;;;;;0.88;100.00;95102.44;5081225;28;20036;-56
2022/01/07 03:39:49;;;;;;;12.40;4.90;;;;;;;0.94;100.00;95104.34;5080512;28;20048;-56
2022/01/07 03:42:16;;;;;;;5.32;3.53;;;;;;;0.98;100.00;95098.88;5075115;28;20077;-56
2022/01/07 03:44:43;;;;;;;5.22;2.80;;;;;;;0.95;100.00;95113.63;5074608;28;20098;-56
2022/01/07 03:47:10;;;;;;;4.07;2.58;;;;;;;0.90;100.00;95113.31;5075646;28;20064;-56
2022/01/07 03:49:37;;;;;;;4.72;3.03;;;;;;;0.89;100.00;95114.28;5075803;28;20044;-58
2022/01/07 03:52:05;;;;;;;6.40;2.63;;;;;;;0.93;100.00;95125.81;5071046;28;20505;-56
2022/01/07 03:54:31;;;;;;;6.80;3.83;;;;;;;0.90;100.00;95123.59;5081428;28;20054;-56
2022/01/07 03:56:58;;;;;;;6.38;3.13;;;;;;;0.89;100.00;95111.72;5076922;28;20032;-56
2022/01/07 03:59:27;;;;;;;6.55;3.33;;;;;;;0.91;100.00;95122.59;5085120;28;20515;-56
2022/01/07 04:01:53;;;;;;;9.85;4.95;;;;;;;0.89;100.00;95127.09;5074945;28;20040;-56
2022/01/07 04:04:21;;;;;;;5.05;3.05;;;;;;;0.81;100.00;95132.25;5073192;28;20043;-56
2022/01/07 04:06:47;;;;;;;7.03;3.45;;;;;;;0.87;100.00;95136.72;5072440;28;20036;-57
2022/01/07 04:09:14;;;;;;;6.60;3.65;;;;;;;0.90;100.00;95126.16;5071252;28;20816;-56
2022/01/07 04:11:41;;;;;;;5.72;2.70;;;;;;;0.89;100.00;95134.00;5073040;28;20045;-56
2022/01/07 04:14:08;;;;;;;6.70;3.47;;;;;;;0.92;100.00;95131.91;5069070;28;20041;-56
2022/01/07 04:16:35;;;;;;;6.95;3.47;;;;;;;0.91;100.00;95138.00;5069387;28;20483;-57
2022/01/07 04:19:03;;;;;;;4.28;2.80;;;;;;;0.94;100.00;95137.66;5076437;28;20041;-56
2022/01/07 04:21:29;;;;;;;4.45;2.28;;;;;;;0.88;100.00;95138.34;5072910;28;20138;-55
2022/01/07 04:23:56;;;;;;;7.78;3.88;;;;;;;0.83;100.00;95140.59;5073221;28;20449;-56
2022/01/07 04:26:23;;;;;;;9.02;4.75;;;;;;;0.87;100.00;95146.97;5075016;28;20041;-56
2022/01/07 04:28:50;;;;;;;8.55;5.35;;;;;;;0.84;100.00;95142.16;5072072;28;20532;-56
2022/01/07 04:31:17;;;;;;;13.77;6.68;;;;;;;0.87;100.00;95146.97;5073338;28;20051;-56
2022/01/07 04:33:43;;;;;;;8.13;4.07;;;;;;;0.90;100.00;95151.78;5084712;28;20038;-56
2022/01/07 04:36:10;;;;;;;6.53;3.85;;;;;;;0.88;100.00;95148.59;5076745;28;20412;-56
2022/01/07 04:38:37;;;;;;;10.05;4.78;;;;;;;0.91;100.00;95150.03;5075522;28;20040;-55
2022/01/07 04:41:04;;;;;;;9.10;4.13;;;;;;;0.91;100.00;95147.47;5080995;28;20040;-56
2022/01/07 04:43:31;;;;;;;5.93;3.67;;;;;;;0.89;100.00;95155.31;5081984;28;20051;-56
2022/01/07 04:45:58;;;;;;;9.07;4.60;;;;;;;0.92;100.00;95157.56;5074833;28;20055;-56
2022/01/07 04:48:25;;;;;;;8.57;4.13;;;;;;;0.89;100.00;95155.31;5071364;28;20461;-56
2022/01/07 04:50:52;;;;;;;7.68;4.55;;;;;;;0.92;100.00;95160.13;5070631;28;20094;-56
2022/01/07 04:53:18;;;;;;;10.45;5.10;;;;;;;0.94;100.00;95165.88;5077270;28;20049;-57
2022/01/07 04:55:45;;;;;;;7.80;4.53;;;;;;;0.96;100.00;95165.72;5072578;28;20513;-57
2022/01/07 04:58:13;;;;;;;11.40;5.53;;;;;;;1.00;100.00;95171.34;5066926;28;20048;-57
2022/01/07 05:00:43;;;;;;;11.75;6.68;;;;;;;1.04;100.00;95162.34;5070840;28;20081;-56
2022/01/07 05:03:10;;;;;;;22.27;10.35;;;;;;;1.06;100.00;95175.81;5076016;28;20040;-56
2022/01/07 05:05:37;;;;;;;21.77;8.98;;;;;;;0.99;100.00;95165.41;5074921;28;20040;-56
2022/01/07 05:08:05;;;;;;;18.02;9.43;;;;;;;1.04;100.00;95167.47;5072877;28;20426;-56
2022/01/07 05:10:33;;;;;;;12.00;5.72;;;;;;;1.10;100.00;95171.97;5069283;28;20048;-57
2022/01/07 05:12:59;;;;;;;10.20;5.28;;;;;;;1.07;100.00;95173.06;5078548;28;20060;-57
2022/01/07 05:15:26;;;;;;;10.32;5.78;;;;;;;0.99;100.00;95174.84;5074414;28;20522;-56
2022/01/07 05:17:53;;;;;;;9.63;4.43;;;;;;;1.13;100.00;95179.31;5083582;28;20074;-56
2022/01/07 05:20:21;;;;;;;7.57;4.28;;;;;;;1.03;100.00;95171.00;5086122;28;20178;-57
2022/01/07 05:22:48;;;;;;;9.05;5.57;;;;;;;1.15;100.00;95179.94;5083399;28;20044;-57
2022/01/07 05:25:16;;;;;;;6.80;4.07;;;;;;;1.12;100.00;95170.81;5077276;28;20140;-55
2022/01/07 05:27:43;;;;;;;9.05;4.65;;;;;;;1.14;100.00;95178.38;5082719;28;20123;-55
2022/01/07 05:30:12;;;;;;;11.95;6.30;;;;;;;1.24;100.00;95186.69;5071290;28;20589;-57
2022/01/07 05:32:39;;;;;;;10.65;5.50;;;;;;;1.25;100.00;95197.75;5078425;28;20047;-56
2022/01/07 05:35:07;;;;;;;10.95;5.72;;;;;;;1.24;100.00;95194.38;5084521;28;20417;-56
2022/01/07 05:37:34;;;;;;;10.73;6.35;;;;;;;1.26;100.00;95202.72;5088220;28;20404;-57
2022/01/07 05:40:02;;;;;;;7.60;4.32;;;;;;;1.32;100.00;95202.06;5075377;28;20043;-55
2022/01/07 05:42:29;;;;;;;12.85;5.03;;;;;;;1.29;100.00;95206.72;5080845;28;20040;-56
2022/01/07 05:44:57;;;;;;;11.52;6.30;;;;;;;1.23;100.00;95200.47;5077007;28;20036;-56
2022/01/07 05:47:24;;;;;;;10.35;4.38;;;;;;;1.26;100.00;95201.91;5080456;28;20116;-57
2022/01/07 05:49:51;;;;;;;9.98;4.63;;;;;;;1.20;100.00;95203.34;5077679;28;20041;-57
2022/01/07 05:52:18;;;;;;;7.45;4.95;;;;;;;1.33;100.00;95203.66;5070592;28;20044;-56
2022/01/07 05:54:45;;;;;;;7.38;4.55;;;;;;;1.34;100.00;95210.38;5077204;28;20047;-56
2022/01/07 05:57:11;;;;;;;7.78;4.07;;;;;;;1.37;100.00;95208.44;5079138;28;20040;-57
2022/01/07 05:59:38;;;;;;;11.45;6.40;;;;;;;1.41;100.00;95204.59;5081226;28;20039;-57
2022/01/07 06:02:06;;;;;;;9.43;5.20;;;;;;;1.40;100.00;95203.00;5073361;28;20064;-56
2022/01/07 06:04:33;;;;;;;8.30;4.90;;;;;;;1.45;100.00;95208.44;5073883;28;20116;-58
2022/01/07 06:07:00;;;;;;;13.43;6.97;;;;;;;1.42;100.00;95211.31;5082822;28;20032;-57
2022/01/07 06:09:27;;;;;;;9.25;5.20;;;;;;;1.42;100.00;95216.47;5075566;28;20044;-57
2022/01/07 06:11:53;;;;;;;9.90;5.20;;;;;;;1.32;100.00;95216.66;5081327;28;20534;-57
2022/01/07 06:14:20;;;;;;;13.40;5.32;;;;;;;1.32;100.00;95212.31;5076323;28;20048;-56
2022/01/07 06:16:47;;;;;;;13.98;6.25;;;;;;;1.36;100.00;95217.13;5077170;28;20047;-56
2022/01/07 06:19:14;;;;;;;11.50;6.28;;;;;;;1.36;100.00;95222.25;5078692;28;20041;-57
2022/01/07 06:21:41;;;;;;;15.98;5.43;;;;;;;1.28;100.00;95221.31;5079935;28;20068;-57
2022/01/07 06:24:08;;;;;;;11.07;6.07;;;;;;;1.28;100.00;95226.44;5078538;28;20040;-57
2022/01/07 06:26:35;;;;;;;8.38;4.38;;;;;;;1.21;100.00;95230.63;5071081;28;20066;-56
2022/01/07 06:29:02;;;;;;;10.63;5.43;;;;;;;1.31;100.00;95231.25;5079085;28;20044;-57
2022/01/07 06:31:29;;;;;;;9.80;6.75;;;;;;;1.24;100.00;95230.31;5079062;28;20047;-55
2022/01/07 06:33:58;;;;;;;20.10;6.75;;;;;;;1.32;100.00;95237.19;5072480;28;20043;-57
2022/01/07 06:36:25;;;;;;;10.70;5.53;;;;;;;1.37;100.00;95226.41;5076577;28;20047;-57
2022/01/07 06:38:53;;;;;;;14.40;5.20;;;;;;;1.43;100.00;95225.78;5071244;28;20118;-56
2022/01/07 06:41:20;;;;;;;5.75;4.55;;;;;;;1.47;100.00;95234.75;5081461;28;20040;-57
2022/01/07 06:43:46;;;;;;;12.02;5.47;;;;;;;1.40;100.00;95244.06;5076261;28;20044;-56
2022/01/07 06:46:13;;;;;;;9.73;5.30;;;;;;;1.41;100.00;95240.53;5071179;28;20086;-56
2022/01/07 06:48:46;;;;;;;7.72;3.63;;;;;;;1.43;100.00;95241.19;5080077;28;20509;-56
2022/01/07 06:51:14;;;;;;;10.80;6.15;;;;;;;1.42;100.00;95242.91;5069254;28;20653;-57
2022/01/07 06:53:41;;;;;;;11.57;5.85;;;;;;;1.56;100.00;95254.28;5072410;28;20233;-56
2022/01/07 06:56:08;;;;;;;9.82;5.55;;;;;;;1.56;100.00;95249.16;5068701;28;20037;-57
2022/01/07 06:58:34;;;;;;;8.95;4.95;;;;;;;1.56;100.00;95248.38;5074013;28;20040;-57
2022/01/07 07:01:01;;;;;;;10.75;6.13;;;;;;;1.57;100.00;95250.78;5073187;28;20044;-57
2022/01/07 07:03:28;;;;;;;17.13;6.05;;;;;;;1.59;100.00;95248.84;5070823;28;20043;-57
2022/01/07 07:05:55;;;;;;;10.05;5.35;;;;;;;1.66;100.00;95252.34;5072322;28;20866;-52
2022/01/07 07:08:22;;;;;;;9.00;5.00;;;;;;;1.64;100.00;95259.41;5076400;28;20048;-56
2022/01/07 07:10:49;;;;;;;13.70;6.57;;;;;;;1.69;100.00;95248.63;5074786;28;20552;-56
2022/01/07 07:13:16;;;;;;;11.63;5.18;;;;;;;1.68;100.00;95252.97;5072205;28;20045;-57
2022/01/07 07:15:43;;;;;;;13.73;7.70;;;;;;;1.67;100.00;95241.09;5077420;28;20058;-56
2022/01/07 07:18:10;;;;;;;13.02;5.97;;;;;;;1.77;100.00;95260.66;5079036;28;20482;-57
2022/01/07 07:20:37;;;;;;;8.23;4.38;;;;;;;1.67;100.00;95251.38;5076096;28;20036;-57
2022/01/07 07:23:04;;;;;;;12.32;6.63;;;;;;;1.70;100.00;95256.19;5077428;28;20077;-57
2022/01/07 07:25:30;;;;;;;12.02;5.78;;;;;;;1.82;100.00;95258.38;5077077;28;20041;-57
2022/01/07 07:27:57;;;;;;;13.98;6.90;;;;;;;1.90;100.00;95255.78;5076676;28;20456;-57
2022/01/07 07:30:32;;;;;;;13.57;6.05;;;;;;;1.90;100.00;95251.44;5073271;28;20055;-57
2022/01/07 07:33:07;;;;;;;13.48;7.07;;;;;;;1.95;100.00;95258.69;5074315;28;20493;-57
2022/01/07 07:38:24;;;;;;;13.10;6.28;;;;;;;1.86;100.00;95254.53;5048821;28;20052;-57
2022/01/07 07:40:51;;;;;;;11.68;7.25;;;;;;;1.91;100.00;95258.22;5069942;28;20041;-57
2022/01/07 07:43:18;;;;;;;22.02;7.53;;;;;;;1.97;100.00;95261.88;5071105;28;20048;-57
2022/01/07 07:45:45;;;;;;;16.00;9.27;;;;;;;2.03;100.00;95256.06;5074801;28;20447;-57
2022/01/07 07:48:12;;;;;;;14.68;6.72;;;;;;;2.00;100.00;95258.97;5072673;28;20044;-57
2022/01/07 07:50:38;;;;;;;9.50;5.72;;;;;;;2.09;100.00;95255.41;5068646;28;20044;-57
2022/01/07 07:53:05;;;;;;;13.38;7.32;;;;;;;2.16;100.00;95265.00;5069559;28;20045;-57
2022/01/07 07:55:32;;;;;;;16.75;8.15;;;;;;;2.10;100.00;95257.00;5076775;28;20093;-57
2022/01/07 07:57:59;;;;;;;13.80;7.60;;;;;;;2.19;100.00;95260.31;5071891;28;20032;-57
2022/01/07 08:00:26;;;;;;;16.30;7.38;;;;;;;2.10;100.00;95267.25;5068874;28;20040;-56
2022/01/07 08:02:53;;;;;;;14.02;7.70;;;;;;;2.07;100.00;95271.94;5066448;28;20041;-57
2022/01/07 08:05:20;;;;;;;18.02;6.45;;;;;;;2.09;100.00;95260.53;5063640;28;20071;-57
2022/01/07 08:07:47;;;;;;;13.80;7.30;;;;;;;2.14;100.00;95266.94;5068529;28;20128;-57
2022/01/07 08:10:21;;;;;;;15.35;7.35;;;;;;;2.19;100.00;95259.53;5071095;28;20151;-57
2022/01/07 08:18:18;;;;;;;17.40;9.38;;;;;;;2.23;100.00;95246.19;5072518;28;20075;-55
2022/01/07 08:20:45;;;;;;;17.08;7.43;;;;;;;2.22;100.00;95244.56;5074563;28;20047;-56
2022/01/07 08:23:12;;;;;;;17.20;8.00;;;;;;;2.26;100.00;95252.75;5069085;28;20425;-57
2022/01/07 08:25:39;;;;;;;17.40;8.10;;;;;;;2.37;100.00;95236.94;5074458;28;20044;-56
2022/01/07 08:28:07;;;;;;;16.10;8.63;;;;;;;2.43;100.00;95241.41;5056817;28;20505;-57
2022/01/07 08:30:47;;;;;;;13.15;6.93;;;;;;;2.58;100.00;95243.25;5062591;28;20052;-57
2022/01/07 08:36:00;;;;;;;16.42;7.28;;;;;;;2.65;100.00;95244.19;5072740;28;20055;-56
2022/01/07 08:38:26;;;;;;;12.73;7.28;;;;;;;2.70;100.00;95241.06;5077386;28;20035;-57
2022/01/07 08:40:53;;;;;;;12.35;7.50;;;;;;;2.81;100.00;95249.19;5080269;28;20044;-57
2022/01/07 08:43:20;;;;;;;15.95;6.97;;;;;;;2.84;100.00;95238.53;5068540;28;20062;-57
2022/01/07 08:45:47;;;;;;;14.55;6.93;;;;;;;2.93;100.00;95235.94;5069500;28;20044;-56
2022/01/07 08:48:14;;;;;;;18.98;11.52;;;;;;;3.00;98.76;95237.63;5071493;28;20041;-57
2022/01/07 08:50:41;;;;;;;15.50;7.75;;;;;;;3.06;98.99;95236.13;5065908;28;20048;-58
2022/01/07 08:53:07;;;;;;;20.42;7.68;;;;;;;3.14;98.72;95232.69;5072310;28;20109;-57
2022/01/07 08:55:34;;;;;;;10.98;5.47;;;;;;;3.24;98.28;95228.91;5070287;28;20040;-57
2022/01/07 08:58:01;;;;;;;13.27;6.47;;;;;;;3.16;98.88;95225.59;5072394;28;20124;-57
2022/01/07 09:00:28;;;;;;;14.73;7.13;;;;;;;3.21;98.91;95239.53;5071353;28;20040;-57
2022/01/07 09:02:55;;;;;;;12.55;5.65;;;;;;;3.29;97.38;95230.94;5070058;28;20048;-57
2022/01/07 09:05:22;;;;;;;12.43;7.53;;;;;;;3.21;97.02;95233.59;5077088;28;20044;-57
2022/01/07 09:07:49;;;;;;;14.48;7.57;;;;;;;3.05;97.87;95229.41;5070365;28;20040;-57
2022/01/07 09:10:16;;;;;;;10.20;5.95;;;;;;;3.15;98.15;95222.25;5071291;28;20048;-57
2022/01/07 09:12:43;;;;;;;11.88;6.07;;;;;;;3.18;97.69;95229.59;5084091;28;20040;-58
2022/01/07 09:15:10;;;;;;;19.42;7.72;;;;;;;3.32;96.97;95214.34;5069884;28;20044;-57
2022/01/07 09:17:37;;;;;;;45.72;16.20;;;;;;;3.33;96.54;95226.25;5073457;28;20044;-58
2022/01/07 09:20:06;;;;;;;18.45;10.65;;;;;;;3.44;97.61;95223.25;5072391;28;20052;-58
2022/01/07 09:22:34;;;;;;;20.88;9.35;;;;;;;3.52;96.74;95220.56;5072724;28;20645;-57
2022/01/07 09:25:01;;;;;;;17.67;8.82;;;;;;;3.52;95.61;95214.63;5062586;28;20044;-56
2022/01/07 09:27:28;;;;;;;12.30;6.45;;;;;;;3.43;95.42;95219.06;5067283;28;20046;-57
2022/01/07 09:29:55;;;;;;;13.88;6.95;;;;;;;3.37;95.46;95218.00;5063982;28;20406;-57
2022/01/07 09:32:22;;;;;;;11.82;5.68;;;;;;;3.44;94.96;95210.38;5072594;28;20044;-57
2022/01/07 09:34:49;;;;;;;15.77;7.72;;;;;;;3.56;95.03;95210.72;5066432;28;20051;-57
2022/01/07 09:37:16;;;;;;;14.35;6.88;;;;;;;3.43;95.17;95203.63;5063498;28;20052;-57
2022/01/07 09:39:42;;;;;;;13.48;8.15;;;;;;;3.56;95.74;95206.34;5068771;28;20040;-57
2022/01/07 09:42:10;;;;;;;17.65;9.75;;;;;;;3.70;95.01;95211.72;5068436;28;20075;-57
2022/01/07 09:44:41;;;;;;;16.85;8.50;;;;;;;3.76;93.62;95205.81;5077924;28;20039;-57
2022/01/07 09:47:12;;;;;;;17.33;7.68;;;;;;;3.87;93.07;95200.25;5074549;28;20417;-57
2022/01/07 09:49:40;;;;;;;21.90;8.32;;;;;;;3.90;92.73;95205.00;5058021;28;20540;-58
2022/01/07 09:52:09;;;;;;;18.35;7.70;;;;;;;3.68;94.61;95198.22;5060876;28;20094;-57
2022/01/07 09:54:39;;;;;;;12.85;7.18;;;;;;;3.79;93.67;95201.13;5062279;28;20051;-58
2022/01/07 09:57:07;;;;;;;12.00;7.47;;;;;;;3.82;93.32;95199.97;5066286;28;20052;-57
2022/01/07 09:59:35;;;;;;;13.45;7.13;;;;;;;3.81;94.24;95193.22;5063628;28;20037;-57
2022/01/07 10:02:05;;;;;;;15.30;7.90;;;;;;;3.94;93.47;95195.97;5065802;28;20410;-58
2022/01/07 10:04:37;;;;;;;10.30;5.88;;;;;;;4.02;92.90;95190.69;5062622;28;20048;-57
2022/01/07 10:07:20;;;;;;;14.65;6.68;;;;;;;4.08;92.39;95188.38;5067451;28;20502;-57
2022/01/07 10:10:08;;;;;;;12.80;6.35;;;;;;;4.22;91.67;95190.91;5065151;28;20529;-57
2022/01/07 10:13:08;;;;;;;13.60;6.10;;;;;;;4.35;90.89;95195.41;5065095;28;20047;-57
2022/01/07 10:15:37;;;;;;;10.32;5.65;;;;;;;4.46;90.21;95194.13;5063357;28;20064;-58
2022/01/07 10:18:12;;;;;;;16.02;6.45;;;;;;;4.56;89.66;95192.03;5069595;28;20687;-58
2022/01/07 10:20:47;;;;;;;12.27;6.32;;;;;;;4.69;89.74;95191.38;5070715;28;20119;-57
2022/01/07 10:23:24;;;;;;;15.85;7.53;;;;;;;4.81;88.96;95175.38;5070374;28;20498;-58
2022/01/07 10:25:56;;;;;;;20.02;7.00;;;;;;;4.75;87.54;95179.50;5071618;28;20406;-58
2022/01/07 10:28:32;;;;;;;15.15;7.32;;;;;;;4.79;87.47;95176.38;5065577;28;20029;-57
2022/01/07 10:31:00;;;;;;;14.65;6.95;;;;;;;4.91;86.36;95186.19;5062067;28;20486;-57
2022/01/07 10:33:35;;;;;;;16.65;8.65;;;;;;;4.93;86.91;95176.47;5061092;28;20139;-55
2022/01/07 10:36:08;;;;;;;14.25;6.90;;;;;;;4.99;87.21;95170.56;5066058;28;20048;-57
2022/01/07 10:38:59;;;;;;;14.95;8.32;;;;;;;5.10;86.91;95172.63;5064033;28;20040;-57
2022/01/07 10:41:26;;;;;;;17.35;8.02;;;;;;;5.19;87.08;95164.75;5068440;28;20127;-58
2022/01/07 10:44:01;;;;;;;13.38;6.22;;;;;;;5.32;86.47;95160.44;5061366;28;20051;-58
2022/01/07 10:46:28;;;;;;;;;;;;;;;5.41;86.17;95168.06;5065822;28;20529;-57
2022/01/07 10:49:04;;;;;;;16.95;7.03;;;;;;;5.46;85.69;95156.16;5075795;28;19963;-57
2022/01/07 10:51:37;;;;;;;17.33;8.10;;;;;;;5.54;85.68;95153.41;5070230;28;20110;-57
2022/01/07 10:54:07;;;;;;;17.27;7.43;;;;;;;5.62;84.81;95146.50;5062995;28;20040;-57
2022/01/07 10:56:43;;;;;;;17.38;7.60;;;;;;;5.67;84.53;95149.31;5063900;28;20055;-58
2022/01/07 10:59:13;;;;;;;20.90;9.55;;;;;;;5.71;83.73;95147.94;5065505;28;20417;-58
2022/01/07 11:01:42;;;;;;;14.75;7.35;;;;;;;5.81;83.87;95143.19;5062325;28;22226;-57
2022/01/07 11:04:27;;;;;;;10.80;7.13;;;;;;;5.86;83.29;95140.03;5061440;28;20071;-58
2022/01/07 11:06:59;;;;;;;;;;;;;;;5.82;82.79;95139.63;5068659;28;20050;-57
2022/01/07 11:09:26;;;;;;;13.70;6.95;;;;;;;5.89;82.92;95145.63;5072367;28;20414;-57
2022/01/07 11:11:54;;;;;;;20.48;9.50;;;;;;;5.87;82.79;95142.44;5064819;28;20585;-57
2022/01/07 11:14:37;;;;;;;20.25;10.60;;;;;;;5.90;82.01;95136.06;5065661;28;20046;-57
2022/01/07 11:17:08;;;;;;;14.75;9.20;;;;;;;5.84;81.47;95132.47;5066258;28;20040;-57
2022/01/07 11:19:42;;;;;;;22.20;9.75;;;;;;;5.73;81.92;95125.28;5076037;28;20036;-57
2022/01/07 11:22:14;;;;;;;23.55;10.63;;;;;;;5.77;81.98;95126.50;5077767;28;22998;-58
2022/01/07 11:24:45;;;;;;;19.58;9.35;;;;;;;5.61;82.51;95125.03;5078865;28;20047;-57
2022/01/07 11:27:15;;;;;;;20.05;7.90;;;;;;;5.46;83.03;95135.50;5073374;28;20049;-58
2022/01/07 11:30:09;;;;;;;19.75;8.77;;;;;;;5.40;83.41;95125.13;5068690;28;20044;-57
2022/01/07 11:32:47;;;;;;;13.70;7.15;;;;;;;5.34;83.85;95134.44;5068870;28;20525;-58
2022/01/07 11:35:17;;;;;;;16.00;7.65;;;;;;;5.34;84.27;95121.53;5069751;28;20047;-58
2022/01/07 11:37:54;;;;;;;16.95;8.10;;;;;;;5.48;83.57;95112.84;5063088;28;20521;-57
2022/01/07 11:40:44;;;;;;;16.73;7.75;;;;;;;5.53;83.30;95115.66;5070381;28;20049;-58
2022/01/07 11:43:14;;;;;;;15.95;9.93;;;;;;;5.61;83.97;95112.09;5066861;28;20055;-58
2022/01/07 11:45:43;;;;;;;18.48;8.70;;;;;;;5.55;83.28;95105.94;5082534;28;20115;-57
2022/01/07 11:48:17;;;;;;;18.75;8.45;;;;;;;5.66;83.17;95114.13;5079029;28;20055;-58